»·PEaware :: N229D KRNO-KSFO

N229D :: KRNO-KSFO

FLIGHT INFORMATION

Flight Status: Arrived
Operator: Privately registered:
United States
More flights under this callsign
Pilot: Austin M. (5128)
Aircraft: BEECH AIRCRAFT MUSKETEER SPORT
(BE19)
More flights by this aircraft type
Origin: KRNO Reno/Tahoe Intl
United States
Destination: KSFO San Francisco Intl
United States
More flights between these airports :: More routes between these airports
Route: +SWR V6 SAC RISTI4
File this flight plan on PilotEdge
Remarks:
Altitude:
(Current/Filed)
200ft
Speed:
(Current/Filed)
220kts
Departed: 21-Jun-17 06:33 PM
Arrived: 21-Jun-17 07:36 PM
Distance/Time
Traveled:
166nm/1:03
Distance/Time
To Go:
Arrived

Flight Plot

Page will automatically refresh every two minutes.


Map Options




Map Legend


Flown Route
Filed Route
Departure Airport
Arrival Airport
Navaid (VOR, NDB)
Fix

Horizontal Profiles

Position Reports

Time Latitude Longitude Heading Altitude Ground
Speed
21-Jun-17 18:09 39.498887 -119.764079 181 4403ft 0kts
21-Jun-17 18:10 39.498887 -119.764079 181 4403ft 0kts
21-Jun-17 18:11 39.498887 -119.764079 181 4403ft 0kts
21-Jun-17 18:12 39.498887 -119.764079 181 4403ft 0kts
21-Jun-17 18:13 39.498887 -119.764079 181 4403ft 0kts
21-Jun-17 18:14 39.498887 -119.764079 181 4403ft 0kts
21-Jun-17 18:15 39.498887 -119.764079 181 4403ft 0kts
21-Jun-17 18:16 39.498887 -119.764079 181 4403ft 0kts
21-Jun-17 18:17 39.498887 -119.764079 181 4403ft 0kts
21-Jun-17 18:18 39.498887 -119.764079 181 4403ft 0kts
21-Jun-17 18:19 39.498887 -119.764079 181 4403ft 0kts
21-Jun-17 18:20 39.498887 -119.764079 181 4403ft 0kts
21-Jun-17 18:21 39.498887 -119.764079 181 4403ft 0kts
21-Jun-17 18:22 39.498887 -119.764079 181 4403ft 0kts
21-Jun-17 18:23 39.498887 -119.764079 181 4403ft 0kts
21-Jun-17 18:24 39.498887 -119.764079 181 4403ft 0kts
21-Jun-17 18:25 39.498887 -119.764079 181 4403ft 0kts
21-Jun-17 18:26 39.498887 -119.764079 181 4403ft 0kts
21-Jun-17 18:27 39.498887 -119.764079 181 4403ft 0kts
21-Jun-17 18:28 39.498869 -119.764079 181 4403ft 2kts
21-Jun-17 18:29 39.497413 -119.765175 180 4402ft 10kts
21-Jun-17 18:30 39.493562 -119.765194 180 4405ft 15kts
21-Jun-17 18:31 39.489296 -119.765530 256 4407ft 3kts
21-Jun-17 18:32 39.489271 -119.765647 257 4408ft 0kts
21-Jun-17 18:33 39.489271 -119.765647 257 4408ft 0kts
21-Jun-17 18:34 39.489271 -119.765647 257 4408ft 0kts
21-Jun-17 18:35 39.489271 -119.765647 257 4408ft 0kts
21-Jun-17 18:36 39.493627 -119.766799 0 4405ft 105kts
21-Jun-17 18:37 39.529542 -119.763587 15 5143ft 202kts
21-Jun-17 18:38 39.581023 -119.744743 13 6261ft 211kts
21-Jun-17 18:39 39.640081 -119.727925 13 7065ft 220kts
21-Jun-17 18:40 39.694025 -119.722764 310 8423ft 192kts
21-Jun-17 18:41 39.666973 -119.766266 198 9762ft 218kts
21-Jun-17 18:42 39.614242 -119.804454 216 10948ft 237kts
21-Jun-17 18:43 39.567851 -119.851601 219 12356ft 230kts
21-Jun-17 18:44 39.525656 -119.896888 220 13737ft 222kts
21-Jun-17 18:45 39.479902 -119.946439 221 15290ft 218kts
21-Jun-17 18:46 39.435697 -119.994309 222 16818ft 211kts
21-Jun-17 18:47 39.398774 -120.034225 222 18128ft 202kts
21-Jun-17 18:48 39.352430 -120.084277 223 19871ft 185kts
21-Jun-17 18:49 39.310064 -120.130641 222 20080ft 238kts
21-Jun-17 18:50 39.258144 -120.186829 222 20077ft 267kts
21-Jun-17 18:51 39.205343 -120.243553 222 20105ft 278kts
21-Jun-17 18:52 39.159671 -120.306977 236 20107ft 280kts
21-Jun-17 18:53 39.114162 -120.387809 236 20091ft 283kts
21-Jun-17 18:54 39.067883 -120.469533 236 20079ft 284kts
21-Jun-17 18:55 39.021331 -120.551481 236 20060ft 285kts
21-Jun-17 18:56 38.975687 -120.631609 236 20003ft 287kts
21-Jun-17 18:57 38.927855 -120.715437 236 19943ft 287kts
21-Jun-17 18:58 38.886665 -120.787483 236 19867ft 288kts
21-Jun-17 18:59 38.845156 -120.859856 236 19834ft 287kts
21-Jun-17 19:00 38.804514 -120.930575 236 19831ft 287kts
21-Jun-17 19:01 38.758448 -121.010578 236 19823ft 287kts
21-Jun-17 19:02 38.711477 -121.091947 235 19769ft 287kts
21-Jun-17 19:03 38.665844 -121.171987 230 19698ft 280kts
21-Jun-17 19:04 38.621852 -121.247410 230 19661ft 274kts
21-Jun-17 19:05 38.578491 -121.321917 230 19662ft 271kts
21-Jun-17 19:06 38.541162 -121.385948 230 19661ft 270kts
21-Jun-17 19:07 38.498830 -121.458407 230 19662ft 269kts
21-Jun-17 19:08 38.458448 -121.527383 230 19664ft 269kts
21-Jun-17 19:09 38.395369 -121.544101 175 19669ft 258kts
21-Jun-17 19:10 38.326965 -121.536188 173 19667ft 260kts
21-Jun-17 19:11 38.255170 -121.526798 173 19237ft 264kts
21-Jun-17 19:12 38.186708 -121.517721 173 18631ft 262kts
21-Jun-17 19:13 38.117867 -121.508606 173 17709ft 270kts
21-Jun-17 19:14 38.046887 -121.499212 172 16810ft 273kts
21-Jun-17 19:15 37.973429 -121.489497 172 16057ft 271kts
21-Jun-17 19:16 37.905704 -121.480570 172 15856ft 272kts
21-Jun-17 19:17 37.834051 -121.471148 172 15764ft 273kts
21-Jun-17 19:18 37.763190 -121.461857 172 15602ft 271kts
21-Jun-17 19:19 37.690490 -121.452327 172 14899ft 272kts
21-Jun-17 19:20 37.630513 -121.498424 229 13729ft 278kts
21-Jun-17 19:21 37.586167 -121.568770 230 12884ft 276kts
21-Jun-17 19:22 37.539524 -121.637083 229 12142ft 273kts
21-Jun-17 19:23 37.502490 -121.715123 234 11147ft 265kts
21-Jun-17 19:24 37.480593 -121.792348 262 9180ft 263kts
21-Jun-17 19:25 37.470700 -121.867931 262 7955ft 242kts
21-Jun-17 19:26 37.460814 -121.936596 262 6762ft 234kts
21-Jun-17 19:26 37.454150 -121.994917 290 5937ft 214kts
21-Jun-17 19:27 37.479721 -122.044545 305 5686ft 203kts
21-Jun-17 19:28 37.503085 -122.094982 301 4707ft 173kts
21-Jun-17 19:29 37.518560 -122.131610 301 4004ft 106kts
21-Jun-17 19:30 37.530297 -122.158716 301 3550ft 109kts
21-Jun-17 19:32 37.545134 -122.193457 299 2943ft 130kts
21-Jun-17 19:33 37.559288 -122.227251 298 2301ft 116kts
21-Jun-17 19:34 37.571628 -122.256747 298 1784ft 111kts
21-Jun-17 19:35 37.583376 -122.284831 298 1294ft 109kts
21-Jun-17 19:36 37.594854 -122.312305 298 808ft 94kts
21-Jun-17 19:37 37.605387 -122.337526 297 378ft 95kts
21-Jun-17 19:38 37.614910 -122.360492 297 6ft 84kts
21-Jun-17 19:39 37.617533 -122.366532 315 9ft 8kts
21-Jun-17 19:40 37.618897 -122.366538 324 9ft 3kts
21-Jun-17 19:41 37.623285 -122.374695 22 15ft 6kts
21-Jun-17 19:42 37.623303 -122.374685 21 15ft 0kts

Navigation Log

Ident Type
Flight plan parsing failed, navigation log unavailable